Terminal Aerodrome Forecast
Issued by NWS Grand Forks, ND

Home | Current Version | Previous Version | Graphics & Text | Print | Product List | Glossary On
Versions: 1 2 3 4 5 6 7 8 9 10 11 12 13 14 15 16 17 18 19 20 21 22 23 24 25
000
FTUS43 KFGF 182333
TAFGFK
TAF
KGFK 182333Z 1900/1924 15007KT P6SM SCT070
     FM190500 15007KT P6SM BKN040
     FM190600 14007KT P6SM BKN015
     FM190700 14008KT P6SM BKN008
     FM190900 15010KT P6SM BKN003
     FM191000 14011KT P6SM BKN008
     FM191800 16021G29KT P6SM BKN080
     FM192300 15019G27KT P6SM VCTS BKN080CB=

USA.gov is the U.S. government's official web portal to all federal, state and local government web resources and services.